Time;durP1;ratioP1;P1;durP2;ratioP2;P2;SDS_P1;SDS_P2;PMS_P1;PMS_P2;Temp;Humidity;BMP_temperature;BMP_pressure;BME280_temperature;BME280_humidity;BME280_pressure;Samples;Min_cycle;Max_cycle;Signal;HPM_P1;HPM_P2
2023/04/13 00:00:10;;;;;;;2.80;1.10;;;13.00;72.50;;;;;;5055530;28;20455;-72
2023/04/13 00:02:37;;;;;;;1.00;0.90;;;13.00;72.30;;;;;;5055063;28;20513;-71
2023/04/13 00:05:06;;;;;;;1.00;1.00;;;12.90;71.70;;;;;;5038390;28;20536;-72
2023/04/13 00:07:32;;;;;;;1.60;0.90;;;12.90;71.10;;;;;;5035350;28;20985;-72
2023/04/13 00:10:01;;;;;;;1.00;0.80;;;12.90;70.90;;;;;;5036282;28;20449;-72
2023/04/13 00:12:28;;;;;;;2.07;1.10;;;12.90;70.20;;;;;;5041283;28;20472;-72
2023/04/13 00:14:55;;;;;;;3.30;1.30;;;12.90;69.50;;;;;;5055173;28;20448;-71
2023/04/13 00:17:25;;;;;;;1.10;0.87;;;12.90;68.90;;;;;;5055056;28;20502;-72
2023/04/13 00:19:56;;;;;;;0.97;0.97;;;12.90;69.00;;;;;;5051330;28;20470;-72
2023/04/13 00:22:23;;;;;;;1.77;0.90;;;12.80;68.80;;;;;;5055174;28;20455;-72
2023/04/13 00:24:54;;;;;;;2.50;1.10;;;12.80;68.70;;;;;;5054620;28;20476;-72
2023/04/13 00:27:21;;;;;;;0.80;0.80;;;12.80;68.50;;;;;;5047787;28;20453;-72
2023/04/13 00:29:48;;;;;;;4.23;0.93;;;12.80;68.00;;;;;;5051613;28;20476;-71
2023/04/13 00:32:15;;;;;;;2.03;0.77;;;12.70;67.60;;;;;;5054751;28;20575;-72
2023/04/13 00:34:45;;;;;;;1.40;0.93;;;12.70;67.60;;;;;;5054601;28;20547;-72
2023/04/13 00:37:13;;;;;;;1.23;0.97;;;12.60;66.40;;;;;;5055030;28;20479;-71
2023/04/13 00:39:42;;;;;;;2.07;1.23;;;12.70;66.90;;;;;;5050608;28;20975;-72
2023/04/13 00:42:09;;;;;;;1.10;0.73;;;12.60;66.10;;;;;;5051088;28;20575;-72
2023/04/13 00:44:36;;;;;;;1.67;1.00;;;12.70;66.40;;;;;;5053815;28;20556;-72
2023/04/13 00:47:04;;;;;;;1.60;0.90;;;12.60;66.30;;;;;;5047627;28;20878;-72
2023/04/13 00:49:33;;;;;;;1.23;1.07;;;12.70;66.30;;;;;;5034640;28;20537;-71
2023/04/13 00:52:02;;;;;;;2.13;1.23;;;12.70;65.90;;;;;;5034735;28;20489;-72
2023/04/13 00:54:30;;;;;;;2.00;1.10;;;12.80;65.60;;;;;;5033109;28;20477;-72
2023/04/13 00:56:57;;;;;;;2.03;0.90;;;12.70;65.70;;;;;;5034611;28;20457;-72
2023/04/13 00:59:26;;;;;;;1.30;0.80;;;12.70;65.60;;;;;;5034149;28;21404;-72
2023/04/13 01:01:55;;;;;;;2.83;1.20;;;12.70;65.50;;;;;;5034796;28;20444;-72
2023/04/13 01:04:24;;;;;;;0.90;0.90;;;12.60;64.80;;;;;;5033988;28;20457;-73
2023/04/13 01:07:00;;;;;;;1.23;0.83;;;12.60;65.10;;;;;;5046652;28;20488;-71
2023/04/13 01:09:34;;;;;;;1.10;1.00;;;12.60;64.80;;;;;;5041611;28;20461;-72
2023/04/13 01:12:07;;;;;;;1.30;0.87;;;12.60;64.70;;;;;;5040387;28;20492;-72
2023/04/13 01:14:39;;;;;;;1.43;1.10;;;12.60;64.80;;;;;;5033463;28;20460;-72
2023/04/13 01:17:11;;;;;;;1.77;1.03;;;12.60;64.70;;;;;;5047586;28;20538;-72
2023/04/13 01:19:51;;;;;;;2.40;1.17;;;12.60;64.70;;;;;;5053988;28;20791;-71
2023/04/13 01:22:21;;;;;;;1.30;1.13;;;12.60;64.80;;;;;;5053736;28;20460;-72
2023/04/13 01:25:02;;;;;;;2.97;0.90;;;12.60;64.60;;;;;;5053754;28;20456;-72
2023/04/13 01:27:45;;;;;;;1.80;0.83;;;12.50;64.60;;;;;;5019240;28;20815;-72
2023/04/13 01:30:14;;;;;;;0.93;0.70;;;12.50;64.50;;;;;;5033847;28;20836;-72
2023/04/13 01:32:42;;;;;;;1.03;0.90;;;12.50;64.70;;;;;;5033428;28;20481;-72
2023/04/13 01:35:09;;;;;;;1.77;1.10;;;12.60;64.40;;;;;;5034021;28;20520;-72
2023/04/13 01:37:37;;;;;;;1.17;0.77;;;12.60;64.00;;;;;;5034768;28;20453;-72
2023/04/13 01:40:11;;;;;;;1.90;0.93;;;12.50;64.30;;;;;;5035415;28;20855;-72
2023/04/13 01:42:40;;;;;;;1.10;0.80;;;12.40;64.50;;;;;;5012992;28;20498;-71
2023/04/13 01:45:12;;;;;;;2.53;1.10;;;12.40;64.60;;;;;;5034172;28;20465;-71
2023/04/13 01:47:45;;;;;;;0.63;0.63;;;12.40;65.00;;;;;;5050667;28;20511;-72
2023/04/13 01:50:24;;;;;;;1.53;0.90;;;12.40;64.60;;;;;;5052897;28;20449;-72
2023/04/13 01:52:54;;;;;;;1.80;0.90;;;12.40;64.60;;;;;;5053052;28;20495;-71
2023/04/13 01:55:23;;;;;;;0.83;0.83;;;12.40;64.40;;;;;;5052810;28;20456;-72
2023/04/13 01:57:54;;;;;;;1.43;1.20;;;12.30;64.50;;;;;;5052776;28;20452;-72
2023/04/13 02:00:21;;;;;;;3.90;1.10;;;12.30;64.50;;;;;;5053191;28;20449;-72
2023/04/13 02:02:49;;;;;;;1.57;0.90;;;12.30;63.90;;;;;;5052994;28;20444;-71
2023/04/13 02:05:15;;;;;;;3.47;1.37;;;12.30;63.50;;;;;;5051165;28;20472;-72
2023/04/13 02:07:44;;;;;;;1.47;1.00;;;12.30;63.30;;;;;;5051509;28;20547;-71
2023/04/13 02:10:12;;;;;;;1.27;1.17;;;12.40;63.50;;;;;;5052622;28;20480;-71
2023/04/13 02:12:39;;;;;;;2.87;0.80;;;12.40;63.00;;;;;;5052817;28;20491;-71
2023/04/13 02:15:09;;;;;;;2.57;1.33;;;12.40;62.90;;;;;;5052559;28;20474;-72
2023/04/13 02:17:36;;;;;;;0.80;0.80;;;12.50;62.80;;;;;;5053046;28;20444;-71
2023/04/13 02:20:09;;;;;;;3.40;1.17;;;12.50;62.80;;;;;;5052764;28;20455;-72
2023/04/13 02:22:38;;;;;;;1.33;0.87;;;12.60;62.20;;;;;;5052412;28;20473;-72
2023/04/13 02:25:07;;;;;;;2.37;1.23;;;12.60;62.20;;;;;;5047078;28;20453;-72
2023/04/13 02:27:34;;;;;;;0.90;0.80;;;12.60;61.30;;;;;;5032384;28;20844;-72
2023/04/13 02:30:01;;;;;;;1.30;0.80;;;12.60;61.40;;;;;;5032837;28;20481;-72
2023/04/13 02:32:31;;;;;;;3.47;1.17;;;12.50;61.50;;;;;;5032837;28;20481;-71
2023/04/13 02:34:58;;;;;;;1.70;1.00;;;12.50;61.10;;;;;;5032310;28;20461;-72
2023/04/13 02:37:25;;;;;;;2.47;0.93;;;12.50;61.20;;;;;;5040880;28;20452;-72
2023/04/13 02:39:52;;;;;;;2.47;1.17;;;12.50;61.20;;;;;;5052633;28;20535;-72
2023/04/13 02:42:19;;;;;;;1.50;1.20;;;12.60;61.70;;;;;;5040972;28;20460;-72
2023/04/13 02:44:46;;;;;;;2.37;1.20;;;12.70;61.50;;;;;;5032218;28;20461;-72
2023/04/13 02:47:12;;;;;;;3.73;1.30;;;12.80;61.50;;;;;;5032518;28;20824;-72
2023/04/13 02:49:41;;;;;;;2.67;1.10;;;12.80;60.80;;;;;;5032646;28;20453;-70
2023/04/13 02:52:09;;;;;;;1.37;1.10;;;12.60;60.60;;;;;;5036084;28;20559;-72
2023/04/13 02:54:37;;;;;;;3.40;1.20;;;12.70;61.40;;;;;;5031814;28;20456;-71
2023/04/13 02:57:04;;;;;;;1.47;0.97;;;12.60;60.80;;;;;;5032118;28;20489;-71
2023/04/13 02:59:31;;;;;;;1.90;1.17;;;12.60;60.90;;;;;;5033360;28;21048;-72
2023/04/13 03:01:58;;;;;;;2.13;1.20;;;12.60;61.20;;;;;;5052510;28;20448;-73
2023/04/13 03:04:26;;;;;;;2.80;1.40;;;12.60;61.30;;;;;;5051894;28;20526;-72
2023/04/13 03:06:55;;;;;;;2.30;1.10;;;12.60;60.80;;;;;;5052309;28;20934;-71
2023/04/13 03:09:23;;;;;;;2.50;1.07;;;12.50;60.70;;;;;;5035754;28;20573;-72
2023/04/13 03:11:50;;;;;;;2.93;1.53;;;12.40;60.60;;;;;;5032342;28;20449;-72
2023/04/13 03:14:21;;;;;;;3.83;1.10;;;12.50;60.80;;;;;;5031624;28;20493;-72
2023/04/13 03:16:48;;;;;;;1.57;1.07;;;12.50;60.90;;;;;;5033223;28;20448;-72
2023/04/13 03:19:15;;;;;;;3.70;1.27;;;12.40;61.00;;;;;;5050466;28;20956;-72
2023/04/13 03:21:43;;;;;;;1.63;1.03;;;12.60;61.30;;;;;;5056163;28;20847;-71
2023/04/13 03:24:11;;;;;;;3.33;1.37;;;12.60;60.80;;;;;;5055267;28;20448;-71
2023/04/13 03:26:38;;;;;;;4.37;1.70;;;12.50;60.50;;;;;;5056130;28;20912;-72
2023/04/13 03:29:05;;;;;;;2.00;1.20;;;12.50;61.10;;;;;;5043423;28;20469;-72
2023/04/13 03:31:32;;;;;;;2.73;1.13;;;12.50;61.00;;;;;;5040797;28;20481;-72
2023/04/13 03:33:59;;;;;;;2.17;1.10;;;12.50;60.80;;;;;;5035840;28;20850;-72
2023/04/13 03:36:27;;;;;;;3.07;1.30;;;12.50;60.80;;;;;;5036092;28;20459;-72
2023/04/13 03:38:54;;;;;;;4.43;1.50;;;12.50;60.70;;;;;;5035704;28;20464;-72
2023/04/13 03:41:22;;;;;;;2.83;1.10;;;12.50;60.50;;;;;;5035929;28;20453;-71
2023/04/13 03:43:50;;;;;;;1.53;1.33;;;12.50;60.20;;;;;;5053934;28;20502;-72
2023/04/13 03:46:17;;;;;;;4.00;1.20;;;12.50;60.10;;;;;;5055946;28;20535;-72
2023/04/13 03:48:44;;;;;;;1.90;1.10;;;12.40;60.10;;;;;;5045844;28;20945;-71
2023/04/13 03:51:11;;;;;;;3.23;1.83;;;12.30;60.40;;;;;;5049204;28;20464;-72
2023/04/13 03:53:38;;;;;;;1.60;1.20;;;12.30;60.40;;;;;;5055489;28;20483;-71
2023/04/13 03:56:06;;;;;;;4.90;1.47;;;12.20;60.30;;;;;;5055629;28;20495;-72
2023/04/13 03:58:35;;;;;;;2.10;1.20;;;12.30;60.50;;;;;;5054521;28;20510;-72
2023/04/13 04:01:01;;;;;;;4.43;1.50;;;12.30;60.60;;;;;;5055314;28;20482;-72
2023/04/13 04:03:29;;;;;;;3.00;1.63;;;12.40;60.90;;;;;;5055441;28;20810;-71
2023/04/13 04:05:56;;;;;;;1.60;1.20;;;12.30;60.80;;;;;;5055028;28;20480;-71
2023/04/13 04:08:22;;;;;;;2.87;1.23;;;12.20;59.90;;;;;;5054542;28;20448;-71
2023/04/13 04:10:49;;;;;;;6.17;1.77;;;12.20;59.90;;;;;;5055052;28;20544;-72
2023/04/13 04:13:16;;;;;;;5.83;1.67;;;12.20;60.30;;;;;;5054794;28;20523;-71
2023/04/13 04:15:44;;;;;;;2.70;1.53;;;12.20;60.10;;;;;;5055193;28;20646;-72
2023/04/13 04:18:11;;;;;;;3.33;1.30;;;12.30;59.60;;;;;;5038455;28;20561;-72
2023/04/13 04:20:38;;;;;;;3.60;1.70;;;12.30;59.40;;;;;;5035257;28;20449;-72
2023/04/13 04:23:05;;;;;;;3.20;1.17;;;12.40;59.70;;;;;;5045016;28;20560;-72
2023/04/13 04:25:33;;;;;;;4.00;1.30;;;12.40;59.50;;;;;;5054829;28;20807;-72
2023/04/13 04:28:01;;;;;;;2.97;1.07;;;12.40;59.30;;;;;;5053659;28;20489;-72
2023/04/13 04:30:32;;;;;;;5.17;1.53;;;12.40;59.40;;;;;;5048055;28;20511;-72
2023/04/13 04:33:01;;;;;;;2.77;1.50;;;12.40;59.30;;;;;;5054720;28;20523;-72
2023/04/13 04:35:32;;;;;;;4.00;1.40;;;12.40;59.10;;;;;;5054662;28;20476;-72
2023/04/13 04:37:59;;;;;;;2.13;1.30;;;12.30;58.90;;;;;;5052107;28;20484;-72
2023/04/13 04:40:26;;;;;;;3.63;1.57;;;12.30;59.50;;;;;;5017561;28;20477;-72
2023/04/13 04:42:53;;;;;;;4.00;1.33;;;12.20;59.30;;;;;;5035153;28;20453;-72
2023/04/13 04:45:20;;;;;;;3.27;1.47;;;12.20;59.30;;;;;;5034439;28;20461;-71
2023/04/13 04:47:48;;;;;;;6.53;1.67;;;12.20;59.30;;;;;;5035153;28;20453;-72
2023/04/13 04:50:17;;;;;;;3.90;1.60;;;12.20;59.30;;;;;;5034601;28;20556;-71
2023/04/13 04:52:45;;;;;;;4.10;1.53;;;12.20;59.30;;;;;;5034116;28;20477;-71
2023/04/13 04:55:12;;;;;;;4.97;1.40;;;12.20;59.20;;;;;;5047975;28;20484;-72
2023/04/13 04:57:39;;;;;;;2.47;1.30;;;12.30;59.00;;;;;;5051800;28;20574;-72
2023/04/13 05:00:14;;;;;;;1.97;1.10;;;12.30;59.20;;;;;;5052093;28;20454;-72
2023/04/13 05:02:40;;;;;;;3.80;1.50;;;12.40;59.20;;;;;;5054611;28;20480;-71
2023/04/13 05:05:08;;;;;;;4.53;1.83;;;12.40;58.90;;;;;;5054002;28;20787;-71
2023/04/13 05:07:37;;;;;;;3.03;1.33;;;12.40;58.60;;;;;;5053272;28;20451;-71
2023/04/13 05:10:04;;;;;;;5.73;1.77;;;12.40;58.60;;;;;;5053811;28;20692;-71
2023/04/13 05:12:31;;;;;;;3.77;1.50;;;12.40;58.60;;;;;;5054043;28;20456;-71
2023/04/13 05:14:58;;;;;;;4.80;1.67;;;12.40;58.90;;;;;;5053512;28;20490;-72
2023/04/13 05:17:26;;;;;;;2.90;1.60;;;12.40;58.90;;;;;;5053889;28;21019;-71
2023/04/13 05:19:53;;;;;;;5.17;1.87;;;12.40;58.70;;;;;;5053941;28;20879;-71
2023/04/13 05:22:21;;;;;;;4.50;1.47;;;12.40;58.70;;;;;;5054552;28;20478;-71
2023/04/13 05:24:49;;;;;;;4.73;1.57;;;12.40;58.70;;;;;;5054671;28;20484;-71
2023/04/13 05:27:16;;;;;;;5.90;1.70;;;12.40;58.90;;;;;;5053447;28;20472;-71
2023/04/13 05:29:43;;;;;;;3.87;1.53;;;12.50;59.10;;;;;;5035337;28;21162;-71
2023/04/13 05:32:10;;;;;;;3.87;1.60;;;12.50;59.00;;;;;;5044981;28;21042;-72
2023/04/13 05:34:37;;;;;;;6.03;1.43;;;12.60;59.10;;;;;;5054009;28;20488;-72
2023/04/13 05:37:04;;;;;;;5.63;1.53;;;12.50;58.50;;;;;;5053732;28;20452;-72
2023/04/13 05:39:31;;;;;;;3.10;1.43;;;12.50;59.10;;;;;;5058519;28;20536;-71
2023/04/13 05:42:01;;;;;;;4.07;1.30;;;12.50;58.80;;;;;;5065534;28;20452;-71
2023/04/13 05:44:28;;;;;;;3.13;1.83;;;12.50;58.80;;;;;;5010186;28;20472;-71
2023/04/13 05:46:54;;;;;;;3.33;1.37;;;12.50;59.00;;;;;;5046755;28;20803;-71
2023/04/13 05:49:21;;;;;;;7.23;3.13;;;12.40;58.70;;;;;;5060507;28;20452;-72
2023/04/13 05:51:48;;;;;;;4.67;1.70;;;12.40;59.00;;;;;;5038285;28;21847;-71
2023/04/13 05:54:16;;;;;;;5.20;2.07;;;12.40;59.80;;;;;;5052559;28;20488;-72
2023/04/13 05:56:43;;;;;;;4.73;1.60;;;12.50;59.40;;;;;;5053259;28;20468;-72
2023/04/13 05:59:11;;;;;;;4.10;1.70;;;12.50;59.10;;;;;;5035910;28;21125;-73
2023/04/13 06:01:38;;;;;;;5.87;1.90;;;12.60;59.30;;;;;;5034653;28;20488;-70
2023/04/13 06:04:05;;;;;;;8.13;1.37;;;12.50;59.10;;;;;;5052517;28;20454;-71
2023/04/13 06:06:32;;;;;;;4.83;1.63;;;12.40;59.50;;;;;;5033868;28;20776;-70
2023/04/13 06:08:59;;;;;;;6.07;1.67;;;12.30;59.40;;;;;;5033874;28;20449;-72
2023/04/13 06:11:26;;;;;;;2.53;1.23;;;12.30;59.50;;;;;;5033236;28;20453;-72
2023/04/13 06:13:53;;;;;;;4.23;1.60;;;12.20;59.70;;;;;;5051699;28;21081;-72
2023/04/13 06:16:22;;;;;;;2.77;1.30;;;12.30;60.10;;;;;;5052423;28;20465;-72
2023/04/13 06:18:49;;;;;;;3.73;1.50;;;12.30;60.00;;;;;;5052682;28;20472;-72
2023/04/13 06:21:16;;;;;;;5.07;2.07;;;12.40;60.10;;;;;;5053325;28;20776;-70
2023/04/13 06:23:42;;;;;;;5.03;1.73;;;12.40;60.00;;;;;;5050931;28;20487;-72
2023/04/13 06:26:10;;;;;;;6.37;1.60;;;12.40;60.10;;;;;;5053070;28;20451;-70
2023/04/13 06:28:37;;;;;;;4.97;1.80;;;12.40;59.90;;;;;;5052019;28;20472;-71
2023/04/13 06:31:05;;;;;;;3.33;1.23;;;12.40;60.10;;;;;;5053084;28;20567;-71
2023/04/13 06:33:33;;;;;;;3.37;1.50;;;12.50;60.10;;;;;;5049773;28;20484;-72
2023/04/13 06:36:00;;;;;;;3.47;1.53;;;12.50;59.90;;;;;;5052697;28;20586;-70
2023/04/13 06:38:27;;;;;;;3.10;1.63;;;12.60;59.60;;;;;;5052441;28;20999;-72
2023/04/13 06:40:53;;;;;;;6.77;1.83;;;12.60;59.70;;;;;;5052755;28;20548;-72
2023/04/13 06:43:20;;;;;;;4.10;1.70;;;12.60;59.60;;;;;;5046304;28;20491;-71
2023/04/13 06:45:48;;;;;;;3.77;1.57;;;12.60;59.70;;;;;;5052124;28;20920;-72
2023/04/13 06:48:15;;;;;;;4.27;1.40;;;12.70;59.70;;;;;;5051946;28;20472;-72
2023/04/13 06:50:44;;;;;;;3.00;1.80;;;12.80;59.70;;;;;;5052097;28;20496;-71
2023/04/13 06:53:11;;;;;;;3.30;1.63;;;12.90;59.50;;;;;;5050186;28;20792;-70
2023/04/13 06:55:38;;;;;;;6.13;1.97;;;12.90;59.20;;;;;;5051703;28;21203;-72
2023/04/13 06:58:05;;;;;;;4.30;1.80;;;12.90;59.40;;;;;;5043710;28;20457;-72
2023/04/13 07:00:32;;;;;;;2.57;1.40;;;12.90;59.00;;;;;;5032835;28;20480;-72
2023/04/13 07:02:59;;;;;;;6.57;2.53;;;12.90;59.50;;;;;;5051128;28;20452;-72
2023/04/13 07:05:25;;;;;;;4.90;1.70;;;13.00;59.20;;;;;;5044306;28;20551;-71
2023/04/13 07:07:54;;;;;;;2.40;1.37;;;13.00;59.10;;;;;;5052094;28;20452;-72
2023/04/13 07:10:21;;;;;;;5.07;1.60;;;13.00;58.90;;;;;;5051664;28;20472;-71
2023/04/13 07:12:48;;;;;;;3.50;1.70;;;13.00;58.60;;;;;;5045281;28;20475;-72
2023/04/13 07:15:15;;;;;;;7.00;2.60;;;13.00;59.10;;;;;;5038577;28;20520;-72
2023/04/13 07:17:42;;;;;;;4.07;1.60;;;13.00;58.90;;;;;;5032007;28;20500;-71
2023/04/13 07:20:10;;;;;;;3.07;1.27;;;12.90;58.60;;;;;;5032341;28;20449;-72
2023/04/13 07:22:37;;;;;;;5.30;1.90;;;12.80;58.90;;;;;;5038032;28;20510;-72
2023/04/13 07:25:07;;;;;;;6.00;2.07;;;12.80;58.60;;;;;;5045316;28;20460;-72
2023/04/13 07:27:34;;;;;;;4.90;1.77;;;12.90;59.00;;;;;;5049768;28;20455;-70
2023/04/13 07:30:01;;;;;;;5.90;1.97;;;13.00;59.10;;;;;;5052087;28;20482;-71
2023/04/13 07:32:27;;;;;;;4.23;1.80;;;13.10;59.00;;;;;;5051510;28;20974;-72
2023/04/13 07:34:58;;;;;;;6.03;2.67;;;13.20;58.60;;;;;;5050419;28;20855;-71
2023/04/13 07:37:25;;;;;;;5.73;2.00;;;13.10;58.40;;;;;;5050893;28;20505;-70
2023/04/13 07:39:53;;;;;;;3.13;1.70;;;13.10;58.60;;;;;;5052271;28;20476;-72
2023/04/13 07:42:21;;;;;;;7.50;1.80;;;13.00;58.60;;;;;;5036000;28;20798;-72
2023/04/13 07:44:48;;;;;;;5.00;2.60;;;13.00;58.30;;;;;;5018140;28;20964;-72
2023/04/13 07:47:15;;;;;;;7.40;2.43;;;13.00;58.60;;;;;;5032902;28;20469;-71
2023/04/13 07:49:42;;;;;;;7.80;2.00;;;13.10;58.70;;;;;;5040860;28;20800;-72
2023/04/13 07:52:09;;;;;;;5.30;1.90;;;13.40;58.80;;;;;;5049271;28;20813;-72
2023/04/13 07:54:36;;;;;;;8.17;2.20;;;13.50;58.00;;;;;;5032248;28;20493;-76
2023/04/13 07:57:03;;;;;;;6.77;2.07;;;13.40;56.80;;;;;;5056371;28;20528;-71
2023/04/13 07:59:31;;;;;;;5.27;2.20;;;13.40;57.30;;;;;;5059101;28;20500;-72
2023/04/13 08:01:58;;;;;;;6.93;2.20;;;13.20;57.60;;;;;;5051585;28;20448;-72
2023/04/13 08:04:25;;;;;;;5.67;2.10;;;13.00;58.60;;;;;;5053710;28;20483;-71
2023/04/13 08:06:52;;;;;;;4.33;2.00;;;13.10;59.50;;;;;;5041468;28;20449;-71
2023/04/13 08:09:21;;;;;;;8.03;2.90;;;13.30;59.50;;;;;;5035253;28;20457;-72
2023/04/13 08:11:48;;;;;;;5.80;2.00;;;13.30;58.10;;;;;;5035305;28;20465;-73
2023/04/13 08:14:15;;;;;;;6.50;1.90;;;13.40;58.20;;;;;;5038207;28;20879;-72
2023/04/13 08:16:43;;;;;;;4.07;1.70;;;13.40;58.30;;;;;;5042946;28;20484;-71
2023/04/13 08:19:11;;;;;;;7.20;2.30;;;13.40;58.00;;;;;;5035154;28;20925;-71
2023/04/13 08:21:40;;;;;;;5.60;2.33;;;13.50;57.90;;;;;;5042044;28;20530;-71
2023/04/13 08:24:08;;;;;;;7.93;2.33;;;13.50;57.80;;;;;;5054669;28;20451;-72
2023/04/13 08:26:35;;;;;;;5.63;2.10;;;13.40;58.00;;;;;;5043760;28;20481;-72
2023/04/13 08:29:02;;;;;;;8.77;2.50;;;13.20;58.40;;;;;;5048185;28;20461;-72
2023/04/13 08:31:29;;;;;;;5.13;2.23;;;13.00;59.40;;;;;;5034907;28;20449;-72
2023/04/13 08:33:57;;;;;;;6.53;2.50;;;12.90;60.90;;;;;;5041290;28;20466;-72
2023/04/13 08:36:24;;;;;;;5.57;2.03;;;12.80;61.80;;;;;;5039842;28;20548;-71
2023/04/13 08:38:51;;;;;;;7.17;2.13;;;12.80;62.90;;;;;;5052605;28;20476;-72
2023/04/13 08:41:18;;;;;;;8.00;3.60;;;13.00;62.70;;;;;;5054901;28;20539;-71
2023/04/13 08:43:46;;;;;;;7.67;2.67;;;13.00;63.40;;;;;;5054202;28;20590;-72
2023/04/13 08:46:19;;;;;;;8.03;2.10;;;13.20;63.10;;;;;;5042707;28;20511;-73
2023/04/13 08:48:48;;;;;;;7.33;2.77;;;13.50;63.40;;;;;;5038632;28;20983;-71
2023/04/13 08:51:17;;;;;;;8.50;2.10;;;13.70;62.30;;;;;;5046640;28;20458;-72
2023/04/13 08:53:44;;;;;;;5.40;2.20;;;13.50;60.80;;;;;;5034410;28;20802;-71
2023/04/13 08:56:15;;;;;;;5.63;2.70;;;13.50;61.50;;;;;;5045202;28;20494;-72
2023/04/13 08:58:44;;;;;;;8.40;2.40;;;13.50;61.00;;;;;;5036015;28;20550;-72
2023/04/13 09:01:13;;;;;;;7.07;2.17;;;13.60;61.50;;;;;;5054421;28;20452;-72
2023/04/13 09:03:48;;;;;;;6.90;2.40;;;13.70;60.90;;;;;;5053765;28;20932;-71
2023/04/13 09:06:23;;;;;;;5.47;2.13;;;13.80;60.80;;;;;;5042583;28;20467;-71
2023/04/13 09:08:50;;;;;;;4.57;1.80;;;13.80;61.90;;;;;;5035150;28;20479;-71
2023/04/13 09:11:17;;;;;;;7.40;2.20;;;13.70;60.50;;;;;;5038454;28;20513;-71
2023/04/13 09:13:49;;;;;;;6.83;1.87;;;13.70;61.60;;;;;;5045910;28;20559;-72
2023/04/13 09:16:16;;;;;;;5.37;2.13;;;13.70;62.50;;;;;;5047153;28;20499;-71
2023/04/13 09:18:49;;;;;;;5.63;2.07;;;13.80;61.40;;;;;;5050899;28;20457;-72
2023/04/13 09:21:18;;;;;;;6.77;2.30;;;13.90;61.20;;;;;;5049198;28;20461;-71
2023/04/13 09:23:53;;;;;;;8.63;3.03;;;14.00;61.00;;;;;;5048574;28;20547;-73
2023/04/13 09:26:21;;;;;;;6.93;2.33;;;14.10;61.80;;;;;;5052704;28;20558;-72
2023/04/13 09:28:49;;;;;;;5.83;1.90;;;14.20;61.80;;;;;;5047024;28;20823;-72
2023/04/13 09:31:16;;;;;;;6.00;2.30;;;14.20;60.60;;;;;;5043812;28;20563;-72
2023/04/13 09:33:47;;;;;;;5.30;2.30;;;14.20;61.70;;;;;;5053690;28;20459;-71
2023/04/13 09:36:15;;;;;;;5.80;2.40;;;14.40;61.60;;;;;;5035257;28;20512;-73
2023/04/13 09:38:46;;;;;;;6.13;2.23;;;14.50;60.50;;;;;;5053757;28;20452;-72
2023/04/13 09:41:13;;;;;;;4.80;2.10;;;14.60;60.40;;;;;;5053080;28;20452;-72
2023/04/13 09:43:40;;;;;;;4.33;2.23;;;14.70;59.80;;;;;;5051758;28;20460;-72
2023/04/13 09:46:13;;;;;;;6.80;2.30;;;14.80;59.00;;;;;;5037966;28;20451;-73
2023/04/13 09:48:40;;;;;;;6.77;2.33;;;14.60;58.30;;;;;;5033424;28;20491;-72
2023/04/13 09:51:08;;;;;;;5.77;2.30;;;14.60;58.40;;;;;;5033792;28;20448;-72
2023/04/13 09:53:42;;;;;;;4.43;2.10;;;14.60;58.10;;;;;;5033265;28;20480;-72
2023/04/13 09:56:11;;;;;;;5.37;2.23;;;14.50;57.90;;;;;;5048317;28;20546;-72
2023/04/13 09:58:42;;;;;;;4.27;1.87;;;14.60;58.70;;;;;;5053107;28;20453;-72
2023/04/13 10:01:10;;;;;;;4.03;1.87;;;14.40;58.10;;;;;;5053160;28;20452;-72
2023/04/13 10:03:37;;;;;;;2.87;1.80;;;14.60;59.20;;;;;;5053061;28;20936;-71
2023/04/13 10:06:06;;;;;;;2.83;1.67;;;14.60;58.10;;;;;;5052937;28;20468;-71
2023/04/13 10:08:33;;;;;;;5.17;2.17;;;14.70;57.70;;;;;;5051581;28;20563;-72
2023/04/13 10:11:01;;;;;;;4.40;1.60;;;14.70;56.60;;;;;;5052775;28;20472;-72
2023/04/13 10:13:35;;;;;;;5.47;2.00;;;14.50;56.90;;;;;;5033041;28;20468;-73
2023/04/13 10:16:42;;;;;;;3.97;1.70;;;14.70;57.30;;;;;;5047495;28;20488;-73
2023/04/13 10:19:12;;;;;;;6.83;2.00;;;14.60;57.20;;;;;;5049601;28;21032;-72
2023/04/13 10:21:42;;;;;;;6.70;2.00;;;14.70;57.50;;;;;;5052703;28;20444;-72
2023/04/13 10:24:11;;;;;;;6.83;2.30;;;14.70;57.90;;;;;;5052752;28;20445;-72
2023/04/13 10:26:39;;;;;;;4.93;2.00;;;14.80;57.70;;;;;;5051884;28;20451;-72
2023/04/13 10:29:10;;;;;;;5.63;2.10;;;14.70;57.30;;;;;;5032775;28;20476;-73
2023/04/13 10:31:38;;;;;;;4.87;1.73;;;14.70;57.30;;;;;;5035611;28;20450;-72
2023/04/13 10:34:05;;;;;;;5.77;1.97;;;14.60;57.70;;;;;;5044525;28;20975;-72
2023/04/13 10:36:40;;;;;;;3.40;1.90;;;14.60;57.90;;;;;;5052148;28;20484;-72
2023/04/13 10:39:08;;;;;;;4.20;1.80;;;14.40;57.60;;;;;;5052483;28;20490;-72
2023/04/13 10:41:35;;;;;;;4.00;2.00;;;14.40;58.50;;;;;;5052606;28;20456;-72
2023/04/13 10:44:03;;;;;;;4.37;1.90;;;14.50;58.40;;;;;;5052346;28;20845;-72
2023/04/13 10:46:32;;;;;;;8.27;1.97;;;14.50;57.90;;;;;;5051790;28;20484;-72
2023/04/13 10:49:00;;;;;;;5.30;1.87;;;14.40;57.70;;;;;;5052533;28;20448;-72
2023/04/13 10:51:37;;;;;;;7.90;2.80;;;14.50;58.00;;;;;;5052405;28;20480;-72
2023/04/13 10:54:05;;;;;;;4.53;2.30;;;14.50;57.50;;;;;;5045475;28;20482;-72
2023/04/13 10:56:32;;;;;;;7.73;2.17;;;14.40;57.90;;;;;;5050600;28;20484;-72
2023/04/13 10:58:59;;;;;;;5.80;2.03;;;14.50;58.00;;;;;;5051907;28;20514;-70
2023/04/13 11:01:29;;;;;;;6.03;2.20;;;14.50;58.40;;;;;;5051760;28;20455;-72
2023/04/13 11:04:02;;;;;;;5.83;2.17;;;14.60;58.00;;;;;;5051610;28;20480;-72
2023/04/13 11:06:34;;;;;;;6.30;2.00;;;14.50;57.70;;;;;;5051024;28;20560;-73
2023/04/13 11:09:05;;;;;;;5.60;2.10;;;14.40;57.90;;;;;;5040721;28;20477;-72
2023/04/13 11:11:32;;;;;;;4.27;1.90;;;14.40;58.70;;;;;;5051496;28;20456;-72
2023/04/13 11:13:59;;;;;;;5.80;2.07;;;14.50;58.40;;;;;;5051356;28;20465;-71
2023/04/13 11:16:26;;;;;;;9.10;2.10;;;14.40;58.70;;;;;;5052292;28;20480;-71
2023/04/13 11:19:02;;;;;;;5.73;2.00;;;14.40;60.00;;;;;;5032789;28;20453;-73
2023/04/13 11:21:30;;;;;;;4.70;1.60;;;14.50;59.80;;;;;;5032222;28;20976;-71
2023/04/13 11:24:00;;;;;;;6.80;2.13;;;14.60;59.20;;;;;;5047688;28;20460;-73
2023/04/13 11:26:36;;;;;;;7.33;2.00;;;14.60;59.40;;;;;;5047123;28;20476;-71
2023/04/13 11:29:03;;;;;;;4.37;1.97;;;14.80;59.20;;;;;;5032282;28;20463;-72
2023/04/13 11:31:37;;;;;;;5.03;1.87;;;14.90;58.50;;;;;;5032424;28;20873;-72
2023/04/13 11:34:08;;;;;;;4.30;2.00;;;14.90;56.30;;;;;;5033473;28;20461;-71
2023/04/13 11:36:36;;;;;;;3.47;1.47;;;15.00;57.10;;;;;;5044214;28;20568;-72
2023/04/13 11:39:05;;;;;;;5.43;1.80;;;14.90;56.50;;;;;;5034864;28;20488;-72
2023/04/13 11:41:33;;;;;;;5.97;2.13;;;15.10;57.70;;;;;;5036193;28;20449;-72
2023/04/13 11:44:01;;;;;;;2.97;1.57;;;15.00;57.50;;;;;;5035673;28;20579;-72
2023/04/13 11:46:29;;;;;;;4.93;1.93;;;14.90;57.10;;;;;;5035766;28;20449;-72
2023/04/13 11:48:56;;;;;;;4.03;2.10;;;14.80;57.50;;;;;;5035915;28;20444;-72
2023/04/13 11:51:25;;;;;;;3.27;1.57;;;15.10;58.20;;;;;;5042727;28;20444;-72
2023/04/13 11:53:53;;;;;;;3.73;2.17;;;15.40;58.50;;;;;;5055728;28;20471;-72
2023/04/13 11:56:20;;;;;;;3.87;1.73;;;15.60;55.80;;;;;;5055123;28;20546;-72
2023/04/13 11:58:50;;;;;;;2.90;1.90;;;15.40;55.30;;;;;;5058584;28;20453;-72
2023/04/13 12:01:20;;;;;;;4.23;1.80;;;15.30;55.90;;;;;;5048409;28;20473;-73
2023/04/13 12:03:47;;;;;;;4.20;1.77;;;15.40;55.70;;;;;;5049129;28;20480;-72
2023/04/13 12:06:15;;;;;;;4.70;1.90;;;15.40;54.90;;;;;;5049960;28;20445;-72
2023/04/13 12:08:44;;;;;;;5.10;1.97;;;15.50;55.30;;;;;;5047849;28;21009;-72
2023/04/13 12:11:11;;;;;;;4.63;2.30;;;15.50;54.40;;;;;;5035773;28;20467;-72
2023/04/13 12:13:43;;;;;;;2.47;1.67;;;15.40;54.00;;;;;;5048847;28;20566;-72
2023/04/13 12:16:11;;;;;;;5.87;2.10;;;15.60;55.50;;;;;;5047469;28;20551;-73
2023/04/13 12:18:42;;;;;;;3.40;1.70;;;15.70;54.60;;;;;;5051297;28;20498;-72
2023/04/13 12:21:13;;;;;;;6.10;2.03;;;15.70;54.10;;;;;;5054099;28;20476;-72
2023/04/13 12:23:40;;;;;;;6.07;2.10;;;15.80;54.00;;;;;;5050562;28;20448;-71
2023/04/13 12:26:09;;;;;;;5.23;1.73;;;15.90;54.00;;;;;;5051053;28;20472;-73
2023/04/13 12:28:38;;;;;;;4.77;2.20;;;15.90;53.10;;;;;;5046041;28;20468;-73
2023/04/13 12:31:06;;;;;;;8.87;2.27;;;15.80;53.50;;;;;;5048189;28;20528;-72
2023/04/13 12:33:33;;;;;;;6.23;1.97;;;15.70;53.80;;;;;;5041843;28;20452;-72
2023/04/13 12:36:00;;;;;;;3.37;2.03;;;15.80;54.00;;;;;;5048194;28;20586;-72
2023/04/13 12:38:27;;;;;;;5.27;1.90;;;15.70;53.00;;;;;;5052289;28;20883;-71
2023/04/13 12:40:57;;;;;;;4.97;2.00;;;15.70;54.20;;;;;;5034837;28;20546;-72
2023/04/13 12:43:26;;;;;;;5.30;3.30;;;15.90;54.80;;;;;;5035365;28;20457;-72
2023/04/13 12:45:53;;;;;;;3.73;1.97;;;16.20;55.00;;;;;;5056310;28;20480;-72
2023/04/13 12:48:21;;;;;;;5.63;2.10;;;16.20;54.40;;;;;;5055831;28;20486;-72
2023/04/13 12:50:48;;;;;;;4.73;2.53;;;16.30;54.40;;;;;;5042995;28;20488;-72
2023/04/13 12:53:15;;;;;;;6.17;2.20;;;16.80;54.30;;;;;;5038851;28;20504;-72